sensor_id;sensor_type;location;lat;lon;timestamp;P1;P2;P0
26185;PMS7003;20067;48.764;9.176;2023-12-07T00:01:08;19.00;17.50;9.50
26185;PMS7003;20067;48.764;9.176;2023-12-07T00:03:34;25.00;24.25;11.00
26185;PMS7003;20067;48.764;9.176;2023-12-07T00:05:59;20.25;19.75;7.00
26185;PMS7003;20067;48.764;9.176;2023-12-07T00:08:25;21.75;21.75;8.00
26185;PMS7003;20067;48.764;9.176;2023-12-07T00:10:51;18.75;18.00;8.00
26185;PMS7003;20067;48.764;9.176;2023-12-07T00:13:16;18.50;16.25;9.00
26185;PMS7003;20067;48.764;9.176;2023-12-07T00:15:42;19.50;18.75;11.00
26185;PMS7003;20067;48.764;9.176;2023-12-07T00:18:07;21.50;20.00;10.50
26185;PMS7003;20067;48.764;9.176;2023-12-07T00:20:33;26.25;17.75;9.50
26185;PMS7003;20067;48.764;9.176;2023-12-07T00:22:59;18.00;17.25;7.50
26185;PMS7003;20067;48.764;9.176;2023-12-07T00:25:25;24.00;16.00;8.50
26185;PMS7003;20067;48.764;9.176;2023-12-07T00:27:50;19.00;17.25;9.00
26185;PMS7003;20067;48.764;9.176;2023-12-07T00:30:17;20.00;17.25;9.00
26185;PMS7003;20067;48.764;9.176;2023-12-07T00:32:43;17.00;13.50;5.50
26185;PMS7003;20067;48.764;9.176;2023-12-07T00:35:11;16.25;14.75;7.00
26185;PMS7003;20067;48.764;9.176;2023-12-07T00:37:38;15.00;14.00;6.00
26185;PMS7003;20067;48.764;9.176;2023-12-07T00:40:04;18.00;14.00;7.00
26185;PMS7003;20067;48.764;9.176;2023-12-07T00:42:30;16.00;13.50;7.50
26185;PMS7003;20067;48.764;9.176;2023-12-07T00:44:55;22.00;17.50;9.00
26185;PMS7003;20067;48.764;9.176;2023-12-07T00:47:21;16.50;15.50;7.50
26185;PMS7003;20067;48.764;9.176;2023-12-07T00:49:47;19.25;16.00;7.50
26185;PMS7003;20067;48.764;9.176;2023-12-07T00:52:13;16.50;15.50;7.75
26185;PMS7003;20067;48.764;9.176;2023-12-07T00:54:39;18.00;16.00;9.50
26185;PMS7003;20067;48.764;9.176;2023-12-07T00:57:07;13.50;13.50;7.00
26185;PMS7003;20067;48.764;9.176;2023-12-07T00:59:33;17.75;14.50;9.25
26185;PMS7003;20067;48.764;9.176;2023-12-07T01:02:02;18.00;18.00;10.00
26185;PMS7003;20067;48.764;9.176;2023-12-07T01:04:28;13.50;13.50;7.00
26185;PMS7003;20067;48.764;9.176;2023-12-07T01:06:54;18.25;14.00;5.50
26185;PMS7003;20067;48.764;9.176;2023-12-07T01:09:20;13.50;13.50;6.50
26185;PMS7003;20067;48.764;9.176;2023-12-07T01:11:47;12.00;10.00;5.00
26185;PMS7003;20067;48.764;9.176;2023-12-07T01:14:12;18.50;15.00;6.50
26185;PMS7003;20067;48.764;9.176;2023-12-07T01:16:38;18.25;14.50;9.00
26185;PMS7003;20067;48.764;9.176;2023-12-07T01:19:04;17.75;15.50;7.50
26185;PMS7003;20067;48.764;9.176;2023-12-07T01:21:29;14.50;14.50;6.50
26185;PMS7003;20067;48.764;9.176;2023-12-07T01:23:55;13.00;12.50;6.50
26185;PMS7003;20067;48.764;9.176;2023-12-07T01:26:21;13.50;10.50;4.00
26185;PMS7003;20067;48.764;9.176;2023-12-07T01:28:47;12.00;10.00;5.00
26185;PMS7003;20067;48.764;9.176;2023-12-07T01:31:12;11.25;11.25;5.00
26185;PMS7003;20067;48.764;9.176;2023-12-07T01:33:38;14.50;14.00;7.00
26185;PMS7003;20067;48.764;9.176;2023-12-07T01:36:03;11.25;11.25;4.00
26185;PMS7003;20067;48.764;9.176;2023-12-07T01:38:29;15.00;11.50;5.00
26185;PMS7003;20067;48.764;9.176;2023-12-07T01:40:55;18.50;14.00;7.00
26185;PMS7003;20067;48.764;9.176;2023-12-07T01:43:21;12.25;11.00;3.50
26185;PMS7003;20067;48.764;9.176;2023-12-07T01:45:47;10.25;9.25;4.00
26185;PMS7003;20067;48.764;9.176;2023-12-07T01:48:16;14.50;10.75;5.00
26185;PMS7003;20067;48.764;9.176;2023-12-07T01:50:41;12.00;12.00;5.00
26185;PMS7003;20067;48.764;9.176;2023-12-07T01:53:07;20.50;18.00;7.50
26185;PMS7003;20067;48.764;9.176;2023-12-07T01:55:34;14.50;14.00;7.50
26185;PMS7003;20067;48.764;9.176;2023-12-07T01:58:01;12.50;12.50;4.50
26185;PMS7003;20067;48.764;9.176;2023-12-07T02:00:27;16.75;14.00;7.00
26185;PMS7003;20067;48.764;9.176;2023-12-07T02:02:53;16.00;14.00;6.00
26185;PMS7003;20067;48.764;9.176;2023-12-07T02:05:20;14.25;14.25;5.00
26185;PMS7003;20067;48.764;9.176;2023-12-07T02:07:46;16.00;14.00;6.00
26185;PMS7003;20067;48.764;9.176;2023-12-07T02:10:12;13.50;13.50;5.50
26185;PMS7003;20067;48.764;9.176;2023-12-07T02:12:38;9.75;9.50;3.50
26185;PMS7003;20067;48.764;9.176;2023-12-07T02:15:04;14.25;14.25;7.00
26185;PMS7003;20067;48.764;9.176;2023-12-07T02:17:37;14.50;12.50;7.00
26185;PMS7003;20067;48.764;9.176;2023-12-07T02:23:05;11.00;9.50;3.00
26185;PMS7003;20067;48.764;9.176;2023-12-07T02:25:37;13.50;9.50;4.00
26185;PMS7003;20067;48.764;9.176;2023-12-07T02:28:09;13.00;12.00;5.00
26185;PMS7003;20067;48.764;9.176;2023-12-07T02:30:35;13.50;10.50;5.00
26185;PMS7003;20067;48.764;9.176;2023-12-07T02:33:01;12.25;9.00;4.50
26185;PMS7003;20067;48.764;9.176;2023-12-07T02:35:27;16.25;14.00;5.00
26185;PMS7003;20067;48.764;9.176;2023-12-07T02:37:53;18.00;11.75;6.00
26185;PMS7003;20067;48.764;9.176;2023-12-07T02:40:21;18.75;13.00;7.00
26185;PMS7003;20067;48.764;9.176;2023-12-07T02:42:54;16.00;13.25;7.00
26185;PMS7003;20067;48.764;9.176;2023-12-07T02:45:21;9.75;9.75;5.00
26185;PMS7003;20067;48.764;9.176;2023-12-07T02:47:47;19.50;16.00;8.50
26185;PMS7003;20067;48.764;9.176;2023-12-07T02:50:13;15.50;14.00;8.00
26185;PMS7003;20067;48.764;9.176;2023-12-07T02:52:39;17.00;16.50;9.00
26185;PMS7003;20067;48.764;9.176;2023-12-07T02:55:05;16.00;11.50;5.00
26185;PMS7003;20067;48.764;9.176;2023-12-07T02:57:31;17.00;15.00;8.50
26185;PMS7003;20067;48.764;9.176;2023-12-07T03:00:00;16.00;12.25;7.00
26185;PMS7003;20067;48.764;9.176;2023-12-07T03:02:26;17.50;15.00;9.00
26185;PMS7003;20067;48.764;9.176;2023-12-07T03:04:52;13.50;10.75;5.50
26185;PMS7003;20067;48.764;9.176;2023-12-07T03:07:17;12.50;12.50;5.00
26185;PMS7003;20067;48.764;9.176;2023-12-07T03:09:43;15.00;13.00;5.50
26185;PMS7003;20067;48.764;9.176;2023-12-07T03:12:08;14.00;13.50;7.00
26185;PMS7003;20067;48.764;9.176;2023-12-07T03:14:34;11.00;11.00;7.00
26185;PMS7003;20067;48.764;9.176;2023-12-07T03:16:59;10.25;10.25;5.50
26185;PMS7003;20067;48.764;9.176;2023-12-07T03:19:25;16.00;16.00;7.00
26185;PMS7003;20067;48.764;9.176;2023-12-07T03:21:51;14.25;14.25;6.50
26185;PMS7003;20067;48.764;9.176;2023-12-07T03:24:16;12.00;11.00;5.00
26185;PMS7003;20067;48.764;9.176;2023-12-07T03:26:42;19.25;14.25;7.00
26185;PMS7003;20067;48.764;9.176;2023-12-07T03:29:08;18.00;13.00;5.00
26185;PMS7003;20067;48.764;9.176;2023-12-07T03:31:34;14.00;14.00;5.50
26185;PMS7003;20067;48.764;9.176;2023-12-07T03:33:59;13.00;13.00;7.00
26185;PMS7003;20067;48.764;9.176;2023-12-07T03:36:26;11.50;11.00;5.00
26185;PMS7003;20067;48.764;9.176;2023-12-07T03:38:52;12.50;10.75;5.50
26185;PMS7003;20067;48.764;9.176;2023-12-07T03:41:18;13.00;11.50;5.00
26185;PMS7003;20067;48.764;9.176;2023-12-07T03:43:44;14.50;13.00;5.00
26185;PMS7003;20067;48.764;9.176;2023-12-07T03:46:09;16.00;13.00;7.00
26185;PMS7003;20067;48.764;9.176;2023-12-07T03:48:35;17.50;13.50;6.00
26185;PMS7003;20067;48.764;9.176;2023-12-07T03:51:01;16.50;15.00;6.50
26185;PMS7003;20067;48.764;9.176;2023-12-07T03:53:27;16.00;13.25;6.50
26185;PMS7003;20067;48.764;9.176;2023-12-07T03:55:52;18.25;15.00;7.00
26185;PMS7003;20067;48.764;9.176;2023-12-07T03:58:18;18.50;15.25;7.50
26185;PMS7003;20067;48.764;9.176;2023-12-07T04:00:44;12.25;12.25;5.50
26185;PMS7003;20067;48.764;9.176;2023-12-07T04:03:10;13.50;13.00;6.50
26185;PMS7003;20067;48.764;9.176;2023-12-07T04:05:36;13.25;13.25;5.50
26185;PMS7003;20067;48.764;9.176;2023-12-07T04:08:02;16.00;13.25;5.50
26185;PMS7003;20067;48.764;9.176;2023-12-07T04:10:30;19.50;17.75;9.00
26185;PMS7003;20067;48.764;9.176;2023-12-07T04:12:56;17.75;13.50;5.50
26185;PMS7003;20067;48.764;9.176;2023-12-07T04:15:21;22.00;17.50;7.00
26185;PMS7003;20067;48.764;9.176;2023-12-07T04:17:48;15.25;14.50;5.00
26185;PMS7003;20067;48.764;9.176;2023-12-07T04:20:13;16.50;15.75;7.00
26185;PMS7003;20067;48.764;9.176;2023-12-07T04:22:40;16.25;16.00;9.00
26185;PMS7003;20067;48.764;9.176;2023-12-07T04:25:06;17.00;13.00;8.00
26185;PMS7003;20067;48.764;9.176;2023-12-07T04:27:32;20.25;17.00;10.00
26185;PMS7003;20067;48.764;9.176;2023-12-07T04:29:59;19.25;19.00;12.50
26185;PMS7003;20067;48.764;9.176;2023-12-07T04:32:24;18.75;14.25;7.00
26185;PMS7003;20067;48.764;9.176;2023-12-07T04:34:50;18.00;15.00;7.00
26185;PMS7003;20067;48.764;9.176;2023-12-07T04:37:16;17.00;13.25;7.00
26185;PMS7003;20067;48.764;9.176;2023-12-07T04:39:42;13.00;13.00;6.50
26185;PMS7003;20067;48.764;9.176;2023-12-07T04:42:08;16.00;15.00;5.00
26185;PMS7003;20067;48.764;9.176;2023-12-07T04:44:33;18.00;12.50;5.00
26185;PMS7003;20067;48.764;9.176;2023-12-07T04:46:59;16.25;13.00;5.50
26185;PMS7003;20067;48.764;9.176;2023-12-07T04:49:24;18.00;14.00;9.00
26185;PMS7003;20067;48.764;9.176;2023-12-07T04:51:50;23.75;20.25;9.50
26185;PMS7003;20067;48.764;9.176;2023-12-07T04:54:15;18.00;15.00;9.00
26185;PMS7003;20067;48.764;9.176;2023-12-07T04:56:41;17.00;17.00;8.00
26185;PMS7003;20067;48.764;9.176;2023-12-07T04:59:07;25.00;20.50;9.00
26185;PMS7003;20067;48.764;9.176;2023-12-07T05:01:35;19.00;17.00;9.00
26185;PMS7003;20067;48.764;9.176;2023-12-07T05:04:01;16.50;16.50;9.00
26185;PMS7003;20067;48.764;9.176;2023-12-07T05:06:28;14.00;12.50;5.50
26185;PMS7003;20067;48.764;9.176;2023-12-07T05:08:55;15.00;14.50;5.00
26185;PMS7003;20067;48.764;9.176;2023-12-07T05:11:20;16.00;13.00;6.50
26185;PMS7003;20067;48.764;9.176;2023-12-07T05:13:46;17.00;14.50;7.00
26185;PMS7003;20067;48.764;9.176;2023-12-07T05:16:13;17.25;14.00;7.00
26185;PMS7003;20067;48.764;9.176;2023-12-07T05:18:39;15.25;15.25;7.00
26185;PMS7003;20067;48.764;9.176;2023-12-07T05:21:05;18.75;17.00;9.00
26185;PMS7003;20067;48.764;9.176;2023-12-07T05:23:30;18.00;17.50;9.50
26185;PMS7003;20067;48.764;9.176;2023-12-07T05:25:56;18.00;16.00;7.00
26185;PMS7003;20067;48.764;9.176;2023-12-07T05:28:22;25.00;19.00;6.50
26185;PMS7003;20067;48.764;9.176;2023-12-07T05:30:48;16.00;13.50;5.50
26185;PMS7003;20067;48.764;9.176;2023-12-07T05:33:14;15.00;14.50;6.50
26185;PMS7003;20067;48.764;9.176;2023-12-07T05:35:40;18.25;14.50;7.00
26185;PMS7003;20067;48.764;9.176;2023-12-07T05:38:06;17.00;17.00;9.00
26185;PMS7003;20067;48.764;9.176;2023-12-07T05:40:32;21.50;18.25;9.00
26185;PMS7003;20067;48.764;9.176;2023-12-07T05:42:58;24.00;17.50;9.00
26185;PMS7003;20067;48.764;9.176;2023-12-07T05:45:24;17.50;13.50;5.00
26185;PMS7003;20067;48.764;9.176;2023-12-07T05:47:51;23.00;17.00;9.00
26185;PMS7003;20067;48.764;9.176;2023-12-07T05:50:16;22.00;19.00;9.00
26185;PMS7003;20067;48.764;9.176;2023-12-07T05:52:42;17.00;14.50;6.50
26185;PMS7003;20067;48.764;9.176;2023-12-07T05:55:08;24.00;22.50;9.00
26185;PMS7003;20067;48.764;9.176;2023-12-07T05:57:34;19.00;17.00;7.00
26185;PMS7003;20067;48.764;9.176;2023-12-07T06:00:00;17.50;16.50;6.50
26185;PMS7003;20067;48.764;9.176;2023-12-07T06:02:26;17.25;17.25;9.50
26185;PMS7003;20067;48.764;9.176;2023-12-07T06:04:51;18.75;17.00;8.50
26185;PMS7003;20067;48.764;9.176;2023-12-07T06:07:17;14.00;14.00;7.00
26185;PMS7003;20067;48.764;9.176;2023-12-07T06:09:43;18.75;15.00;7.00
26185;PMS7003;20067;48.764;9.176;2023-12-07T06:12:08;15.75;15.00;7.00
26185;PMS7003;20067;48.764;9.176;2023-12-07T06:14:34;18.00;14.50;6.00
26185;PMS7003;20067;48.764;9.176;2023-12-07T06:16:59;18.00;17.75;10.00
26185;PMS7003;20067;48.764;9.176;2023-12-07T06:19:26;17.25;17.25;7.50
26185;PMS7003;20067;48.764;9.176;2023-12-07T06:21:51;15.75;14.75;8.00
26185;PMS7003;20067;48.764;9.176;2023-12-07T06:24:17;20.50;15.00;7.00
26185;PMS7003;20067;48.764;9.176;2023-12-07T06:26:43;21.25;16.75;7.00
26185;PMS7003;20067;48.764;9.176;2023-12-07T06:29:08;17.00;17.00;7.50
26185;PMS7003;20067;48.764;9.176;2023-12-07T06:31:34;17.25;16.25;8.00
26185;PMS7003;20067;48.764;9.176;2023-12-07T06:34:00;18.75;18.75;9.00
26185;PMS7003;20067;48.764;9.176;2023-12-07T06:36:25;20.25;17.00;9.00
26185;PMS7003;20067;48.764;9.176;2023-12-07T06:38:52;19.75;16.75;7.00
26185;PMS7003;20067;48.764;9.176;2023-12-07T06:41:19;21.25;17.75;10.50
26185;PMS7003;20067;48.764;9.176;2023-12-07T06:43:45;16.00;12.50;7.00
26185;PMS7003;20067;48.764;9.176;2023-12-07T06:46:14;15.00;13.50;7.00
26185;PMS7003;20067;48.764;9.176;2023-12-07T06:48:41;18.75;15.00;7.00
26185;PMS7003;20067;48.764;9.176;2023-12-07T06:51:07;18.50;17.00;9.00
26185;PMS7003;20067;48.764;9.176;2023-12-07T06:53:32;19.00;14.50;5.00
26185;PMS7003;20067;48.764;9.176;2023-12-07T06:55:58;17.00;14.00;6.00
26185;PMS7003;20067;48.764;9.176;2023-12-07T06:58:24;19.00;18.75;9.00
26185;PMS7003;20067;48.764;9.176;2023-12-07T07:00:49;20.00;17.00;9.00
26185;PMS7003;20067;48.764;9.176;2023-12-07T07:03:16;22.50;20.50;11.00
26185;PMS7003;20067;48.764;9.176;2023-12-07T07:05:42;20.50;16.00;8.50
26185;PMS7003;20067;48.764;9.176;2023-12-07T07:08:07;25.50;18.00;7.00
26185;PMS7003;20067;48.764;9.176;2023-12-07T07:10:33;22.25;19.00;9.00
26185;PMS7003;20067;48.764;9.176;2023-12-07T07:13:02;17.50;15.50;8.00
26185;PMS7003;20067;48.764;9.176;2023-12-07T07:15:30;19.00;18.00;9.00
26185;PMS7003;20067;48.764;9.176;2023-12-07T07:17:56;25.25;19.00;8.00
26185;PMS7003;20067;48.764;9.176;2023-12-07T07:20:21;26.00;23.00;10.50
26185;PMS7003;20067;48.764;9.176;2023-12-07T07:22:47;21.00;19.00;8.00
26185;PMS7003;20067;48.764;9.176;2023-12-07T07:25:13;22.50;19.00;9.00
26185;PMS7003;20067;48.764;9.176;2023-12-07T07:27:40;19.25;16.50;7.00
26185;PMS7003;20067;48.764;9.176;2023-12-07T07:30:07;19.50;17.00;7.50
26185;PMS7003;20067;48.764;9.176;2023-12-07T07:32:33;16.50;16.00;7.00
26185;PMS7003;20067;48.764;9.176;2023-12-07T07:34:59;16.00;15.00;6.50
26185;PMS7003;20067;48.764;9.176;2023-12-07T07:37:25;19.25;17.00;9.00
26185;PMS7003;20067;48.764;9.176;2023-12-07T07:39:51;22.75;19.00;10.00
26185;PMS7003;20067;48.764;9.176;2023-12-07T07:42:16;20.00;15.50;9.00
26185;PMS7003;20067;48.764;9.176;2023-12-07T07:44:42;19.00;15.75;9.00
26185;PMS7003;20067;48.764;9.176;2023-12-07T07:47:08;18.00;16.50;8.50
26185;PMS7003;20067;48.764;9.176;2023-12-07T07:49:33;19.00;15.50;7.00
26185;PMS7003;20067;48.764;9.176;2023-12-07T07:51:59;26.75;18.50;9.00
26185;PMS7003;20067;48.764;9.176;2023-12-07T07:54:26;21.75;20.00;9.00
26185;PMS7003;20067;48.764;9.176;2023-12-07T07:56:51;26.75;23.25;9.50
26185;PMS7003;20067;48.764;9.176;2023-12-07T07:59:17;26.50;22.25;11.00
26185;PMS7003;20067;48.764;9.176;2023-12-07T08:01:42;23.50;18.00;9.50
26185;PMS7003;20067;48.764;9.176;2023-12-07T08:04:11;20.25;17.25;9.00
26185;PMS7003;20067;48.764;9.176;2023-12-07T08:06:37;26.25;21.25;11.00
26185;PMS7003;20067;48.764;9.176;2023-12-07T08:09:02;21.25;18.25;9.00
26185;PMS7003;20067;48.764;9.176;2023-12-07T08:11:28;18.50;17.00;7.00
26185;PMS7003;20067;48.764;9.176;2023-12-07T08:13:54;25.25;22.25;12.00
26185;PMS7003;20067;48.764;9.176;2023-12-07T08:16:19;17.00;15.00;8.00
26185;PMS7003;20067;48.764;9.176;2023-12-07T08:18:45;23.00;20.50;9.50
26185;PMS7003;20067;48.764;9.176;2023-12-07T08:21:18;19.00;17.50;10.00
26185;PMS7003;20067;48.764;9.176;2023-12-07T08:23:47;16.00;13.00;6.50
26185;PMS7003;20067;48.764;9.176;2023-12-07T08:26:13;23.00;19.00;9.00
26185;PMS7003;20067;48.764;9.176;2023-12-07T08:28:40;21.00;19.00;9.00
26185;PMS7003;20067;48.764;9.176;2023-12-07T08:31:06;27.25;22.75;13.00
26185;PMS7003;20067;48.764;9.176;2023-12-07T08:33:32;21.00;17.00;9.00
26185;PMS7003;20067;48.764;9.176;2023-12-07T08:36:01;26.50;23.00;11.00
26185;PMS7003;20067;48.764;9.176;2023-12-07T08:38:28;33.00;22.75;12.50
26185;PMS7003;20067;48.764;9.176;2023-12-07T08:40:54;28.50;20.50;11.00
26185;PMS7003;20067;48.764;9.176;2023-12-07T08:43:20;21.75;19.00;9.00
26185;PMS7003;20067;48.764;9.176;2023-12-07T08:45:47;20.50;17.75;9.00
26185;PMS7003;20067;48.764;9.176;2023-12-07T08:48:14;21.75;19.00;9.00
26185;PMS7003;20067;48.764;9.176;2023-12-07T08:50:39;22.75;17.00;9.50
26185;PMS7003;20067;48.764;9.176;2023-12-07T08:53:05;19.50;18.25;10.50
26185;PMS7003;20067;48.764;9.176;2023-12-07T08:55:31;25.00;22.50;10.00
26185;PMS7003;20067;48.764;9.176;2023-12-07T08:57:57;21.25;19.00;9.00
26185;PMS7003;20067;48.764;9.176;2023-12-07T09:00:22;20.50;18.50;9.00
26185;PMS7003;20067;48.764;9.176;2023-12-07T09:02:50;27.75;20.75;11.00
26185;PMS7003;20067;48.764;9.176;2023-12-07T09:05:16;25.25;21.00;11.00
26185;PMS7003;20067;48.764;9.176;2023-12-07T09:07:43;24.50;21.00;10.50
26185;PMS7003;20067;48.764;9.176;2023-12-07T09:10:09;24.50;18.50;10.50
26185;PMS7003;20067;48.764;9.176;2023-12-07T09:12:35;23.50;18.50;10.00
26185;PMS7003;20067;48.764;9.176;2023-12-07T09:15:01;25.00;20.75;10.00
26185;PMS7003;20067;48.764;9.176;2023-12-07T09:17:28;22.00;22.00;13.00
26185;PMS7003;20067;48.764;9.176;2023-12-07T09:19:54;24.25;21.00;12.00
26185;PMS7003;20067;48.764;9.176;2023-12-07T09:22:19;24.00;17.75;9.00
26185;PMS7003;20067;48.764;9.176;2023-12-07T09:24:45;22.00;18.25;9.50
26185;PMS7003;20067;48.764;9.176;2023-12-07T09:27:14;20.50;19.50;11.00
26185;PMS7003;20067;48.764;9.176;2023-12-07T09:29:39;19.25;17.25;8.50
26185;PMS7003;20067;48.764;9.176;2023-12-07T09:32:06;22.75;20.25;11.00
26185;PMS7003;20067;48.764;9.176;2023-12-07T09:34:32;22.75;19.25;11.00
26185;PMS7003;20067;48.764;9.176;2023-12-07T09:39:50;20.25;19.25;9.50
26185;PMS7003;20067;48.764;9.176;2023-12-07T09:42:16;19.25;18.00;9.00
26185;PMS7003;20067;48.764;9.176;2023-12-07T09:44:41;24.25;21.50;10.50
26185;PMS7003;20067;48.764;9.176;2023-12-07T09:47:07;22.75;21.00;10.75
26185;PMS7003;20067;48.764;9.176;2023-12-07T09:49:33;22.25;17.00;9.00
26185;PMS7003;20067;48.764;9.176;2023-12-07T09:51:58;23.00;21.00;9.75
26185;PMS7003;20067;48.764;9.176;2023-12-07T09:54:26;25.50;21.50;12.00
26185;PMS7003;20067;48.764;9.176;2023-12-07T09:56:53;23.25;20.25;10.00
26185;PMS7003;20067;48.764;9.176;2023-12-07T09:59:20;27.25;22.75;12.50
26185;PMS7003;20067;48.764;9.176;2023-12-07T10:01:45;23.00;17.25;10.00
26185;PMS7003;20067;48.764;9.176;2023-12-07T10:04:14;23.00;21.25;10.75
26185;PMS7003;20067;48.764;9.176;2023-12-07T10:06:45;26.50;18.25;10.00
26185;PMS7003;20067;48.764;9.176;2023-12-07T10:09:11;22.75;18.75;9.75
26185;PMS7003;20067;48.764;9.176;2023-12-07T10:11:37;27.75;24.00;11.00
26185;PMS7003;20067;48.764;9.176;2023-12-07T10:14:04;14.75;14.75;8.25
26185;PMS7003;20067;48.764;9.176;2023-12-07T10:16:32;18.25;18.25;11.00
26185;PMS7003;20067;48.764;9.176;2023-12-07T10:19:16;16.75;16.00;10.50
26185;PMS7003;20067;48.764;9.176;2023-12-07T10:21:49;20.00;18.25;9.00
26185;PMS7003;20067;48.764;9.176;2023-12-07T10:24:20;19.75;17.50;10.75
26185;PMS7003;20067;48.764;9.176;2023-12-07T10:26:47;21.00;18.25;12.00
26185;PMS7003;20067;48.764;9.176;2023-12-07T10:29:14;24.25;22.50;12.25
26185;PMS7003;20067;48.764;9.176;2023-12-07T10:31:43;21.25;17.75;10.00
26185;PMS7003;20067;48.764;9.176;2023-12-07T10:34:09;22.50;21.00;12.75
26185;PMS7003;20067;48.764;9.176;2023-12-07T10:36:34;19.00;19.00;10.00
26185;PMS7003;20067;48.764;9.176;2023-12-07T10:39:01;29.00;25.50;13.00
26185;PMS7003;20067;48.764;9.176;2023-12-07T10:41:31;20.50;19.00;12.50
26185;PMS7003;20067;48.764;9.176;2023-12-07T10:44:04;22.25;20.25;10.50
26185;PMS7003;20067;48.764;9.176;2023-12-07T10:46:32;21.75;20.00;11.00
26185;PMS7003;20067;48.764;9.176;2023-12-07T10:49:04;12.50;12.50;8.00
26185;PMS7003;20067;48.764;9.176;2023-12-07T10:51:42;13.75;11.75;5.00
26185;PMS7003;20067;48.764;9.176;2023-12-07T10:54:16;11.00;10.00;4.50
26185;PMS7003;20067;48.764;9.176;2023-12-07T10:56:47;12.50;11.00;5.00
26185;PMS7003;20067;48.764;9.176;2023-12-07T10:59:15;16.00;13.75;7.75
26185;PMS7003;20067;48.764;9.176;2023-12-07T11:01:42;14.75;14.75;8.00
26185;PMS7003;20067;48.764;9.176;2023-12-07T11:04:11;18.00;12.75;5.50
26185;PMS7003;20067;48.764;9.176;2023-12-07T11:06:41;12.50;11.25;4.50
26185;PMS7003;20067;48.764;9.176;2023-12-07T11:09:16;11.00;9.50;4.00
26185;PMS7003;20067;48.764;9.176;2023-12-07T11:11:50;11.25;10.25;5.00
26185;PMS7003;20067;48.764;9.176;2023-12-07T11:14:19;10.50;10.00;4.00
26185;PMS7003;20067;48.764;9.176;2023-12-07T11:16:46;10.75;9.00;4.00
26185;PMS7003;20067;48.764;9.176;2023-12-07T11:22:01;11.00;9.00;4.00
26185;PMS7003;20067;48.764;9.176;2023-12-07T11:24:31;10.50;9.50;3.00
26185;PMS7003;20067;48.764;9.176;2023-12-07T11:26:58;11.75;9.00;4.00
26185;PMS7003;20067;48.764;9.176;2023-12-07T11:29:23;8.25;8.00;3.00
26185;PMS7003;20067;48.764;9.176;2023-12-07T11:31:50;8.75;8.75;3.25
26185;PMS7003;20067;48.764;9.176;2023-12-07T11:37:04;8.00;8.00;3.00
26185;PMS7003;20067;48.764;9.176;2023-12-07T11:39:35;10.50;8.00;3.00
26185;PMS7003;20067;48.764;9.176;2023-12-07T11:42:11;9.00;8.00;3.00
26185;PMS7003;20067;48.764;9.176;2023-12-07T11:44:40;10.50;7.50;3.00
26185;PMS7003;20067;48.764;9.176;2023-12-07T11:47:07;7.00;7.00;2.50
26185;PMS7003;20067;48.764;9.176;2023-12-07T11:49:34;12.00;10.00;6.00
26185;PMS7003;20067;48.764;9.176;2023-12-07T11:52:00;9.25;9.25;3.00
26185;PMS7003;20067;48.764;9.176;2023-12-07T11:54:37;7.00;7.00;3.00
26185;PMS7003;20067;48.764;9.176;2023-12-07T11:57:03;9.00;9.00;3.50
26185;PMS7003;20067;48.764;9.176;2023-12-07T11:59:29;7.00;7.00;1.00
26185;PMS7003;20067;48.764;9.176;2023-12-07T12:01:58;8.00;8.00;5.00
26185;PMS7003;20067;48.764;9.176;2023-12-07T12:04:24;8.00;7.75;1.00
26185;PMS7003;20067;48.764;9.176;2023-12-07T12:06:50;11.00;6.50;2.00
26185;PMS7003;20067;48.764;9.176;2023-12-07T12:09:15;8.00;7.75;3.00
26185;PMS7003;20067;48.764;9.176;2023-12-07T12:11:47;9.00;8.00;1.00
26185;PMS7003;20067;48.764;9.176;2023-12-07T12:14:16;8.00;7.75;1.50
26185;PMS7003;20067;48.764;9.176;2023-12-07T12:16:42;10.50;9.00;3.50
26185;PMS7003;20067;48.764;9.176;2023-12-07T12:19:09;6.00;6.00;1.00
26185;PMS7003;20067;48.764;9.176;2023-12-07T12:21:38;11.50;10.00;5.00
26185;PMS7003;20067;48.764;9.176;2023-12-07T12:24:05;12.50;10.00;3.00
26185;PMS7003;20067;48.764;9.176;2023-12-07T12:26:32;10.00;10.00;4.00
26185;PMS7003;20067;48.764;9.176;2023-12-07T12:28:59;12.75;11.25;5.00
26185;PMS7003;20067;48.764;9.176;2023-12-07T12:31:25;14.50;10.25;5.00
26185;PMS7003;20067;48.764;9.176;2023-12-07T12:33:51;15.00;10.00;4.50
26185;PMS7003;20067;48.764;9.176;2023-12-07T12:36:16;12.00;10.00;3.50
26185;PMS7003;20067;48.764;9.176;2023-12-07T12:38:48;13.75;13.75;5.00
26185;PMS7003;20067;48.764;9.176;2023-12-07T12:41:17;10.00;10.00;4.00
26185;PMS7003;20067;48.764;9.176;2023-12-07T12:43:44;15.50;13.00;6.00
26185;PMS7003;20067;48.764;9.176;2023-12-07T12:46:10;14.50;12.00;5.00
26185;PMS7003;20067;48.764;9.176;2023-12-07T12:48:37;14.25;10.00;4.00
26185;PMS7003;20067;48.764;9.176;2023-12-07T12:51:10;14.00;12.75;5.75
26185;PMS7003;20067;48.764;9.176;2023-12-07T12:53:44;13.75;12.00;5.00
26185;PMS7003;20067;48.764;9.176;2023-12-07T12:56:11;14.75;12.75;7.00
26185;PMS7003;20067;48.764;9.176;2023-12-07T12:58:37;14.00;12.00;5.00
26185;PMS7003;20067;48.764;9.176;2023-12-07T13:01:04;16.25;14.50;7.50
26185;PMS7003;20067;48.764;9.176;2023-12-07T13:03:29;14.00;13.75;6.50
26185;PMS7003;20067;48.764;9.176;2023-12-07T13:05:56;14.25;12.00;6.75
26185;PMS7003;20067;48.764;9.176;2023-12-07T13:08:22;12.00;12.00;7.00
26185;PMS7003;20067;48.764;9.176;2023-12-07T13:10:47;12.00;12.00;5.00
26185;PMS7003;20067;48.764;9.176;2023-12-07T13:13:13;13.00;10.00;5.50
26185;PMS7003;20067;48.764;9.176;2023-12-07T13:15:39;14.50;12.00;6.75
26185;PMS7003;20067;48.764;9.176;2023-12-07T13:18:05;15.50;14.25;7.00
26185;PMS7003;20067;48.764;9.176;2023-12-07T13:20:31;11.50;11.50;5.25
26185;PMS7003;20067;48.764;9.176;2023-12-07T13:22:57;12.00;12.00;5.00
26185;PMS7003;20067;48.764;9.176;2023-12-07T13:25:22;12.75;12.50;7.00
26185;PMS7003;20067;48.764;9.176;2023-12-07T13:27:48;17.50;12.00;5.50
26185;PMS7003;20067;48.764;9.176;2023-12-07T13:30:13;12.00;12.00;5.00
26185;PMS7003;20067;48.764;9.176;2023-12-07T13:32:39;15.50;13.00;5.25
26185;PMS7003;20067;48.764;9.176;2023-12-07T13:35:05;13.75;10.00;5.75
26185;PMS7003;20067;48.764;9.176;2023-12-07T13:37:32;13.50;11.00;4.50
26185;PMS7003;20067;48.764;9.176;2023-12-07T13:39:58;13.75;11.25;5.00
26185;PMS7003;20067;48.764;9.176;2023-12-07T13:42:24;18.25;16.00;8.00
26185;PMS7003;20067;48.764;9.176;2023-12-07T13:44:55;13.25;10.00;5.00
26185;PMS7003;20067;48.764;9.176;2023-12-07T13:47:22;13.75;10.00;4.50
26185;PMS7003;20067;48.764;9.176;2023-12-07T13:49:56;13.50;11.75;5.75
26185;PMS7003;20067;48.764;9.176;2023-12-07T13:52:23;14.50;12.25;6.00
26185;PMS7003;20067;48.764;9.176;2023-12-07T13:54:48;15.25;15.00;6.50
26185;PMS7003;20067;48.764;9.176;2023-12-07T13:57:14;12.25;11.75;5.00
26185;PMS7003;20067;48.764;9.176;2023-12-07T13:59:40;12.00;12.00;5.50
26185;PMS7003;20067;48.764;9.176;2023-12-07T14:02:06;10.00;10.00;5.00
26185;PMS7003;20067;48.764;9.176;2023-12-07T14:04:33;12.25;12.00;5.00